Fontana, Kansas
Current Conditions -  °F | °C
As of 3:53 AM on Saturday 25 Oct 2014 (Local Time) from KIXD Reporting Station
Haze Haze  
Wind Chill: 59°   Ceiling: Unl
Heat Index: 59°   Visibility: 5mi
Dew Point: 58°   Wind: 6mph
Humidity: 96%   Direction: 220°SW
Pressure: 30.02"   Gusts: NA
Location:  38.43°N, 94.84°W
Report Text: KIXD 250853Z AUTO 22005KT 5SM BR CLR 15/14 A3002 RMK AO2 SLP158 T01500144 50001
Loading
Personal Weather Stations






























Interactive Weather Map
Tropical Storm Tracking
New forecast layout! Learn more

10-Day Weather Forecast

Advertisements
Track Severe Weather on mobile